sensor_id;sensor_type;location;lat;lon;timestamp;pressure;altitude;pressure_sealevel;temperature;humidity
54948;BME280;41113;41.882;12.530;2022-07-29T00:01:29;100852.28;;;27.60;66.29
54948;BME280;41113;41.882;12.530;2022-07-29T00:04:04;100851.97;;;27.69;65.43
54948;BME280;41113;41.882;12.530;2022-07-29T00:06:30;100851.56;;;27.77;65.44
54948;BME280;41113;41.882;12.530;2022-07-29T00:08:55;100858.75;;;27.78;65.57
54948;BME280;41113;41.882;12.530;2022-07-29T00:11:20;100847.41;;;27.51;66.69
54948;BME280;41113;41.882;12.530;2022-07-29T00:13:45;100845.59;;;27.56;66.49
54948;BME280;41113;41.882;12.530;2022-07-29T00:16:11;100856.88;;;27.67;65.74
54948;BME280;41113;41.882;12.530;2022-07-29T00:18:36;100861.41;;;27.73;65.44
54948;BME280;41113;41.882;12.530;2022-07-29T00:21:01;100860.34;;;27.74;65.34
54948;BME280;41113;41.882;12.530;2022-07-29T00:23:27;100851.50;;;27.48;66.09
54948;BME280;41113;41.882;12.530;2022-07-29T00:25:52;100851.94;;;27.57;66.15
54948;BME280;41113;41.882;12.530;2022-07-29T00:28:18;100848.81;;;27.77;64.95
54948;BME280;41113;41.882;12.530;2022-07-29T00:30:44;100839.03;;;27.86;64.74
54948;BME280;41113;41.882;12.530;2022-07-29T00:33:09;100846.44;;;27.69;64.94
54948;BME280;41113;41.882;12.530;2022-07-29T00:35:35;100841.06;;;27.50;65.68
54948;BME280;41113;41.882;12.530;2022-07-29T00:38:10;100839.88;;;27.46;65.71
54948;BME280;41113;41.882;12.530;2022-07-29T00:40:35;100837.97;;;27.35;66.21
54948;BME280;41113;41.882;12.530;2022-07-29T00:43:00;100832.56;;;27.28;66.54
54948;BME280;41113;41.882;12.530;2022-07-29T00:45:27;100830.44;;;26.95;68.08
54948;BME280;41113;41.882;12.530;2022-07-29T00:47:55;100832.00;;;27.15;67.48
54948;BME280;41113;41.882;12.530;2022-07-29T00:50:21;100834.19;;;27.13;67.46
54948;BME280;41113;41.882;12.530;2022-07-29T00:52:46;100831.50;;;26.94;68.14
54948;BME280;41113;41.882;12.530;2022-07-29T00:55:13;100833.53;;;26.64;69.30
54948;BME280;41113;41.882;12.530;2022-07-29T00:57:38;100830.78;;;26.64;68.75
54948;BME280;41113;41.882;12.530;2022-07-29T01:00:06;100835.25;;;26.77;67.78
54948;BME280;41113;41.882;12.530;2022-07-29T01:02:31;100832.94;;;26.62;68.27
54948;BME280;41113;41.882;12.530;2022-07-29T01:04:57;100826.94;;;26.53;68.69
54948;BME280;41113;41.882;12.530;2022-07-29T01:07:23;100828.50;;;26.38;68.41
54948;BME280;41113;41.882;12.530;2022-07-29T01:09:48;100826.59;;;26.50;67.81
54948;BME280;41113;41.882;12.530;2022-07-29T01:12:15;100824.53;;;26.33;68.04
54948;BME280;41113;41.882;12.530;2022-07-29T01:14:41;100816.69;;;26.19;67.71
54948;BME280;41113;41.882;12.530;2022-07-29T01:17:12;100825.53;;;26.09;67.08
54948;BME280;41113;41.882;12.530;2022-07-29T01:22:28;100816.59;;;25.95;67.40
54948;BME280;41113;41.882;12.530;2022-07-29T01:29:57;100815.59;;;26.08;65.93
54948;BME280;41113;41.882;12.530;2022-07-29T01:32:28;100817.75;;;26.06;65.87
54948;BME280;41113;41.882;12.530;2022-07-29T01:35:05;100811.03;;;26.02;65.85
54948;BME280;41113;41.882;12.530;2022-07-29T01:37:45;100820.28;;;25.78;66.18
54948;BME280;41113;41.882;12.530;2022-07-29T01:40:31;100818.13;;;25.80;66.31
54948;BME280;41113;41.882;12.530;2022-07-29T01:42:58;100820.41;;;25.83;65.92
54948;BME280;41113;41.882;12.530;2022-07-29T01:50:40;100834.53;;;25.86;65.33
54948;BME280;41113;41.882;12.530;2022-07-29T01:53:08;100837.41;;;25.91;65.21
54948;BME280;41113;41.882;12.530;2022-07-29T01:55:35;100840.41;;;25.90;64.98
54948;BME280;41113;41.882;12.530;2022-07-29T01:58:02;100829.25;;;25.85;65.29
54948;BME280;41113;41.882;12.530;2022-07-29T02:00:28;100827.72;;;25.89;65.57
54948;BME280;41113;41.882;12.530;2022-07-29T02:02:56;100826.16;;;25.81;65.63
54948;BME280;41113;41.882;12.530;2022-07-29T02:05:23;100829.97;;;25.80;65.80
54948;BME280;41113;41.882;12.530;2022-07-29T02:07:52;100826.50;;;25.85;65.28
54948;BME280;41113;41.882;12.530;2022-07-29T02:10:18;100828.06;;;25.81;65.14
54948;BME280;41113;41.882;12.530;2022-07-29T02:12:46;100824.31;;;25.75;65.15
54948;BME280;41113;41.882;12.530;2022-07-29T02:15:12;100824.09;;;25.77;65.34
54948;BME280;41113;41.882;12.530;2022-07-29T02:17:40;100820.38;;;25.71;65.40
54948;BME280;41113;41.882;12.530;2022-07-29T02:20:06;100826.94;;;25.70;65.35
54948;BME280;41113;41.882;12.530;2022-07-29T02:22:33;100824.56;;;25.73;65.14
54948;BME280;41113;41.882;12.530;2022-07-29T02:25:00;100832.00;;;25.85;64.69
54948;BME280;41113;41.882;12.530;2022-07-29T02:27:25;100822.88;;;25.72;65.02
54948;BME280;41113;41.882;12.530;2022-07-29T02:29:52;100820.59;;;25.69;65.45
54948;BME280;41113;41.882;12.530;2022-07-29T02:32:18;100820.97;;;25.73;65.42
54948;BME280;41113;41.882;12.530;2022-07-29T02:34:44;100819.56;;;25.82;65.21
54948;BME280;41113;41.882;12.530;2022-07-29T02:37:11;100817.91;;;25.93;64.67
54948;BME280;41113;41.882;12.530;2022-07-29T02:39:37;100821.47;;;25.82;64.63
54948;BME280;41113;41.882;12.530;2022-07-29T02:42:05;100819.06;;;25.73;64.99
54948;BME280;41113;41.882;12.530;2022-07-29T02:44:32;100820.59;;;25.69;65.12
54948;BME280;41113;41.882;12.530;2022-07-29T02:50:04;100816.56;;;25.65;66.00
54948;BME280;41113;41.882;12.530;2022-07-29T02:55:13;100825.91;;;25.64;66.21
54948;BME280;41113;41.882;12.530;2022-07-29T02:57:44;100818.44;;;25.53;66.47
54948;BME280;41113;41.882;12.530;2022-07-29T03:00:11;100824.31;;;25.57;66.55
54948;BME280;41113;41.882;12.530;2022-07-29T03:02:38;100821.88;;;25.49;66.68
54948;BME280;41113;41.882;12.530;2022-07-29T03:05:06;100823.19;;;25.46;66.72
54948;BME280;41113;41.882;12.530;2022-07-29T03:07:33;100833.03;;;25.35;67.21
54948;BME280;41113;41.882;12.530;2022-07-29T03:10:00;100835.13;;;25.40;66.72
54948;BME280;41113;41.882;12.530;2022-07-29T03:12:26;100834.34;;;25.33;66.38
54948;BME280;41113;41.882;12.530;2022-07-29T03:14:52;100831.59;;;25.15;67.11
54948;BME280;41113;41.882;12.530;2022-07-29T03:17:18;100836.34;;;25.07;67.36
54948;BME280;41113;41.882;12.530;2022-07-29T03:19:43;100835.97;;;24.97;67.38
54948;BME280;41113;41.882;12.530;2022-07-29T03:22:09;100826.72;;;25.17;66.67
54948;BME280;41113;41.882;12.530;2022-07-29T03:24:35;100825.66;;;25.18;66.67
54948;BME280;41113;41.882;12.530;2022-07-29T03:27:01;100825.03;;;25.16;66.46
54948;BME280;41113;41.882;12.530;2022-07-29T03:29:27;100813.22;;;24.90;67.12
54948;BME280;41113;41.882;12.530;2022-07-29T03:31:52;100820.09;;;24.81;67.54
54948;BME280;41113;41.882;12.530;2022-07-29T03:34:18;100820.19;;;24.68;68.17
54948;BME280;41113;41.882;12.530;2022-07-29T03:36:43;100815.81;;;24.85;67.79
54948;BME280;41113;41.882;12.530;2022-07-29T03:39:09;100816.56;;;24.92;67.57
54948;BME280;41113;41.882;12.530;2022-07-29T03:41:36;100815.50;;;24.93;66.76
54948;BME280;41113;41.882;12.530;2022-07-29T03:44:03;100819.84;;;24.82;66.99
54948;BME280;41113;41.882;12.530;2022-07-29T03:46:30;100822.75;;;24.88;67.20
54948;BME280;41113;41.882;12.530;2022-07-29T03:48:58;100824.22;;;24.90;66.96
54948;BME280;41113;41.882;12.530;2022-07-29T03:51:25;100814.97;;;24.85;67.04
54948;BME280;41113;41.882;12.530;2022-07-29T03:53:51;100817.13;;;24.82;67.16
54948;BME280;41113;41.882;12.530;2022-07-29T03:56:16;100819.63;;;24.84;67.09
54948;BME280;41113;41.882;12.530;2022-07-29T03:58:44;100819.63;;;24.84;67.39
54948;BME280;41113;41.882;12.530;2022-07-29T04:01:09;100832.59;;;24.95;66.96
54948;BME280;41113;41.882;12.530;2022-07-29T04:03:35;100832.19;;;24.98;66.65
54948;BME280;41113;41.882;12.530;2022-07-29T04:06:01;100832.16;;;24.80;67.52
54948;BME280;41113;41.882;12.530;2022-07-29T04:08:27;100828.56;;;24.79;67.32
54948;BME280;41113;41.882;12.530;2022-07-29T04:10:52;100841.00;;;24.82;67.47
54948;BME280;41113;41.882;12.530;2022-07-29T04:13:18;100849.63;;;24.86;67.40
54948;BME280;41113;41.882;12.530;2022-07-29T04:15:44;100852.75;;;25.14;66.48
54948;BME280;41113;41.882;12.530;2022-07-29T04:18:09;100861.06;;;25.26;66.29
54948;BME280;41113;41.882;12.530;2022-07-29T04:20:34;100866.50;;;25.32;66.03
54948;BME280;41113;41.882;12.530;2022-07-29T04:23:00;100861.44;;;25.84;64.03
54948;BME280;41113;41.882;12.530;2022-07-29T04:25:25;100857.41;;;26.28;62.72
54948;BME280;41113;41.882;12.530;2022-07-29T04:27:50;100854.09;;;27.03;59.86
54948;BME280;41113;41.882;12.530;2022-07-29T04:30:25;100856.91;;;27.32;58.37
54948;BME280;41113;41.882;12.530;2022-07-29T04:32:50;100853.78;;;27.92;57.15
54948;BME280;41113;41.882;12.530;2022-07-29T04:35:16;100856.59;;;28.08;55.81
54948;BME280;41113;41.882;12.530;2022-07-29T04:37:41;100850.50;;;28.23;55.60
54948;BME280;41113;41.882;12.530;2022-07-29T04:40:06;100851.56;;;29.01;53.84
54948;BME280;41113;41.882;12.530;2022-07-29T04:42:32;100863.09;;;29.75;51.28
54948;BME280;41113;41.882;12.530;2022-07-29T04:44:57;100862.97;;;29.65;51.22
54948;BME280;41113;41.882;12.530;2022-07-29T04:47:22;100859.16;;;29.93;50.65
54948;BME280;41113;41.882;12.530;2022-07-29T04:49:47;100867.53;;;29.98;50.87
54948;BME280;41113;41.882;12.530;2022-07-29T04:52:13;100871.41;;;30.56;48.85
54948;BME280;41113;41.882;12.530;2022-07-29T04:54:38;100872.28;;;31.25;47.17
54948;BME280;41113;41.882;12.530;2022-07-29T04:57:03;100873.56;;;31.60;46.34
54948;BME280;41113;41.882;12.530;2022-07-29T04:59:28;100881.38;;;31.21;46.66
54948;BME280;41113;41.882;12.530;2022-07-29T05:01:54;100882.94;;;31.54;46.13
54948;BME280;41113;41.882;12.530;2022-07-29T05:04:19;100888.56;;;31.59;45.45
54948;BME280;41113;41.882;12.530;2022-07-29T05:06:44;100881.56;;;31.09;46.93
54948;BME280;41113;41.882;12.530;2022-07-29T05:09:09;100889.13;;;31.66;45.52
54948;BME280;41113;41.882;12.530;2022-07-29T05:11:35;100890.09;;;31.40;46.19
54948;BME280;41113;41.882;12.530;2022-07-29T05:14:00;100891.69;;;31.78;45.51
54948;BME280;41113;41.882;12.530;2022-07-29T05:16:25;100890.38;;;31.91;44.97
54948;BME280;41113;41.882;12.530;2022-07-29T05:18:50;100890.31;;;31.75;45.20
54948;BME280;41113;41.882;12.530;2022-07-29T05:21:16;100891.06;;;31.61;45.45
54948;BME280;41113;41.882;12.530;2022-07-29T05:23:41;100891.91;;;31.61;45.26
54948;BME280;41113;41.882;12.530;2022-07-29T05:26:06;100897.19;;;31.20;46.43
54948;BME280;41113;41.882;12.530;2022-07-29T05:28:35;100891.81;;;31.51;45.69
54948;BME280;41113;41.882;12.530;2022-07-29T05:31:00;100888.56;;;32.57;43.39
54948;BME280;41113;41.882;12.530;2022-07-29T05:33:25;100891.09;;;32.59;43.19
54948;BME280;41113;41.882;12.530;2022-07-29T05:35:50;100897.72;;;32.32;44.10
54948;BME280;41113;41.882;12.530;2022-07-29T05:38:16;100896.59;;;33.35;41.49
54948;BME280;41113;41.882;12.530;2022-07-29T05:40:41;100896.78;;;33.64;40.62
54948;BME280;41113;41.882;12.530;2022-07-29T05:43:06;100903.31;;;33.19;41.64
54948;BME280;41113;41.882;12.530;2022-07-29T05:45:32;100905.56;;;32.81;42.23
54948;BME280;41113;41.882;12.530;2022-07-29T05:47:57;100900.97;;;32.14;43.96
54948;BME280;41113;41.882;12.530;2022-07-29T05:50:22;100905.13;;;31.96;44.85
54948;BME280;41113;41.882;12.530;2022-07-29T05:52:47;100914.69;;;32.46;43.44
54948;BME280;41113;41.882;12.530;2022-07-29T05:55:13;100906.91;;;33.14;41.98
54948;BME280;41113;41.882;12.530;2022-07-29T05:57:38;100905.13;;;34.33;39.64
54948;BME280;41113;41.882;12.530;2022-07-29T06:00:04;100902.91;;;34.25;39.59
54948;BME280;41113;41.882;12.530;2022-07-29T06:02:29;100912.94;;;35.58;37.58
54948;BME280;41113;41.882;12.530;2022-07-29T06:04:54;100907.28;;;34.42;38.88
54948;BME280;41113;41.882;12.530;2022-07-29T06:07:20;100904.59;;;36.00;37.62
54948;BME280;41113;41.882;12.530;2022-07-29T06:09:45;100910.19;;;36.00;36.10
54948;BME280;41113;41.882;12.530;2022-07-29T06:12:11;100905.31;;;34.76;38.09
54948;BME280;41113;41.882;12.530;2022-07-29T06:14:36;100912.47;;;35.50;37.32
54948;BME280;41113;41.882;12.530;2022-07-29T06:17:03;100914.84;;;35.62;36.84
54948;BME280;41113;41.882;12.530;2022-07-29T06:19:28;100918.09;;;36.36;35.48
54948;BME280;41113;41.882;12.530;2022-07-29T06:21:54;100921.25;;;35.63;37.06
54948;BME280;41113;41.882;12.530;2022-07-29T06:24:19;100922.19;;;36.95;35.41
54948;BME280;41113;41.882;12.530;2022-07-29T06:26:45;100924.78;;;37.05;34.91
54948;BME280;41113;41.882;12.530;2022-07-29T06:29:10;100923.44;;;37.62;33.33
54948;BME280;41113;41.882;12.530;2022-07-29T06:31:36;100919.59;;;38.49;32.54
54948;BME280;41113;41.882;12.530;2022-07-29T06:34:01;100935.69;;;40.04;30.50
54948;BME280;41113;41.882;12.530;2022-07-29T06:36:26;100931.50;;;41.40;28.38
54948;BME280;41113;41.882;12.530;2022-07-29T06:38:52;100932.00;;;42.09;27.47
54948;BME280;41113;41.882;12.530;2022-07-29T06:41:17;100928.00;;;42.10;26.67
54948;BME280;41113;41.882;12.530;2022-07-29T06:43:43;100927.59;;;40.28;29.21
54948;BME280;41113;41.882;12.530;2022-07-29T06:46:10;100924.28;;;40.95;28.59
54948;BME280;41113;41.882;12.530;2022-07-29T06:48:38;100930.88;;;41.25;28.47
54948;BME280;41113;41.882;12.530;2022-07-29T06:51:04;100922.84;;;40.37;29.38
54948;BME280;41113;41.882;12.530;2022-07-29T06:53:30;100924.78;;;39.63;30.06
54948;BME280;41113;41.882;12.530;2022-07-29T06:55:55;100930.03;;;36.60;34.53
54948;BME280;41113;41.882;12.530;2022-07-29T06:58:23;100938.50;;;35.94;36.30
54948;BME280;41113;41.882;12.530;2022-07-29T07:00:48;100931.38;;;34.67;38.55
54948;BME280;41113;41.882;12.530;2022-07-29T07:03:14;100934.44;;;33.46;41.09
54948;BME280;41113;41.882;12.530;2022-07-29T07:05:39;100936.69;;;32.63;42.57
54948;BME280;41113;41.882;12.530;2022-07-29T07:08:04;100932.25;;;32.67;43.40
54948;BME280;41113;41.882;12.530;2022-07-29T07:10:30;100928.84;;;32.34;44.00
54948;BME280;41113;41.882;12.530;2022-07-29T07:12:55;100933.56;;;31.66;45.13
54948;BME280;41113;41.882;12.530;2022-07-29T07:15:20;100936.69;;;31.27;45.50
54948;BME280;41113;41.882;12.530;2022-07-29T07:17:49;100934.88;;;31.53;45.40
54948;BME280;41113;41.882;12.530;2022-07-29T07:20:15;100945.22;;;31.63;45.71
54948;BME280;41113;41.882;12.530;2022-07-29T07:22:40;100943.72;;;31.93;44.49
54948;BME280;41113;41.882;12.530;2022-07-29T07:25:06;100942.78;;;31.24;46.70
54948;BME280;41113;41.882;12.530;2022-07-29T07:27:31;100938.41;;;31.39;46.32
54948;BME280;41113;41.882;12.530;2022-07-29T07:29:57;100936.06;;;31.20;46.48
54948;BME280;41113;41.882;12.530;2022-07-29T07:32:22;100938.22;;;30.54;48.05
54948;BME280;41113;41.882;12.530;2022-07-29T07:34:47;100937.97;;;30.83;47.42
54948;BME280;41113;41.882;12.530;2022-07-29T07:37:12;100933.91;;;30.95;47.46
54948;BME280;41113;41.882;12.530;2022-07-29T07:39:39;100940.13;;;31.50;45.86
54948;BME280;41113;41.882;12.530;2022-07-29T07:42:04;100944.22;;;31.84;45.03
54948;BME280;41113;41.882;12.530;2022-07-29T07:44:29;100940.75;;;31.57;45.65
54948;BME280;41113;41.882;12.530;2022-07-29T07:46:55;100948.81;;;31.58;45.98
54948;BME280;41113;41.882;12.530;2022-07-29T07:49:20;100943.06;;;31.28;46.18
54948;BME280;41113;41.882;12.530;2022-07-29T07:51:46;100941.53;;;31.15;46.43
54948;BME280;41113;41.882;12.530;2022-07-29T07:54:11;100950.09;;;31.46;46.19
54948;BME280;41113;41.882;12.530;2022-07-29T07:56:36;100953.38;;;31.38;45.90
54948;BME280;41113;41.882;12.530;2022-07-29T07:59:02;100947.56;;;31.02;46.21
54948;BME280;41113;41.882;12.530;2022-07-29T08:01:27;100948.06;;;31.26;46.50
54948;BME280;41113;41.882;12.530;2022-07-29T08:03:52;100947.81;;;31.01;46.61
54948;BME280;41113;41.882;12.530;2022-07-29T08:06:18;100948.63;;;31.28;46.48
54948;BME280;41113;41.882;12.530;2022-07-29T08:08:43;100954.09;;;31.65;45.19
54948;BME280;41113;41.882;12.530;2022-07-29T08:11:08;100944.41;;;31.68;45.45
54948;BME280;41113;41.882;12.530;2022-07-29T08:13:33;100949.31;;;32.03;44.81
54948;BME280;41113;41.882;12.530;2022-07-29T08:15:59;100953.03;;;32.29;44.32
54948;BME280;41113;41.882;12.530;2022-07-29T08:18:27;100948.03;;;32.36;43.59
54948;BME280;41113;41.882;12.530;2022-07-29T08:20:52;100948.03;;;32.36;43.68
54948;BME280;41113;41.882;12.530;2022-07-29T08:23:18;100947.53;;;32.59;42.52
54948;BME280;41113;41.882;12.530;2022-07-29T08:25:47;100955.91;;;32.85;42.93
54948;BME280;41113;41.882;12.530;2022-07-29T08:28:12;100955.06;;;33.15;42.92
54948;BME280;41113;41.882;12.530;2022-07-29T08:30:38;100950.31;;;33.46;41.98
54948;BME280;41113;41.882;12.530;2022-07-29T08:33:03;100943.91;;;33.45;40.73
54948;BME280;41113;41.882;12.530;2022-07-29T08:35:28;100947.25;;;33.17;41.11
54948;BME280;41113;41.882;12.530;2022-07-29T08:37:54;100952.31;;;32.89;42.31
54948;BME280;41113;41.882;12.530;2022-07-29T08:40:20;100951.75;;;32.87;42.37
54948;BME280;41113;41.882;12.530;2022-07-29T08:42:46;100946.13;;;32.77;42.29
54948;BME280;41113;41.882;12.530;2022-07-29T08:45:11;100953.44;;;32.93;42.67
54948;BME280;41113;41.882;12.530;2022-07-29T08:47:38;100950.91;;;33.12;41.73
54948;BME280;41113;41.882;12.530;2022-07-29T08:50:05;100945.34;;;33.32;41.07
54948;BME280;41113;41.882;12.530;2022-07-29T08:52:30;100947.25;;;33.47;40.14
54948;BME280;41113;41.882;12.530;2022-07-29T08:54:57;100941.06;;;33.70;41.45
54948;BME280;41113;41.882;12.530;2022-07-29T08:57:23;100942.16;;;33.75;39.44
54948;BME280;41113;41.882;12.530;2022-07-29T08:59:49;100940.50;;;33.84;39.55
54948;BME280;41113;41.882;12.530;2022-07-29T09:02:18;100945.19;;;33.93;38.95
54948;BME280;41113;41.882;12.530;2022-07-29T09:04:44;100944.66;;;33.86;39.10
54948;BME280;41113;41.882;12.530;2022-07-29T09:07:10;100945.56;;;33.46;39.59
54948;BME280;41113;41.882;12.530;2022-07-29T09:09:39;100944.75;;;33.46;39.95
54948;BME280;41113;41.882;12.530;2022-07-29T09:12:05;100934.16;;;33.58;39.05
54948;BME280;41113;41.882;12.530;2022-07-29T09:14:32;100939.44;;;33.49;39.00
54948;BME280;41113;41.882;12.530;2022-07-29T09:16:57;100936.13;;;33.37;38.02
54948;BME280;41113;41.882;12.530;2022-07-29T09:19:24;100928.38;;;33.19;38.72
54948;BME280;41113;41.882;12.530;2022-07-29T09:21:49;100930.03;;;33.09;38.86
54948;BME280;41113;41.882;12.530;2022-07-29T09:24:26;100928.63;;;32.66;39.56
54948;BME280;41113;41.882;12.530;2022-07-29T09:26:52;100926.69;;;32.67;40.00
54948;BME280;41113;41.882;12.530;2022-07-29T09:29:19;100930.59;;;32.81;38.60
54948;BME280;41113;41.882;12.530;2022-07-29T09:31:49;100928.34;;;32.68;39.50
54948;BME280;41113;41.882;12.530;2022-07-29T09:34:15;100928.09;;;32.95;39.37
54948;BME280;41113;41.882;12.530;2022-07-29T09:36:45;100912.19;;;33.26;38.96
54948;BME280;41113;41.882;12.530;2022-07-29T09:39:11;100908.53;;;33.46;37.85
54948;BME280;41113;41.882;12.530;2022-07-29T09:44:45;100903.13;;;33.90;36.79
54948;BME280;41113;41.882;12.530;2022-07-29T09:47:11;100900.00;;;33.96;37.42
54948;BME280;41113;41.882;12.530;2022-07-29T09:52:22;100900.69;;;34.22;36.80
54948;BME280;41113;41.882;12.530;2022-07-29T09:54:48;100892.66;;;34.16;36.62
54948;BME280;41113;41.882;12.530;2022-07-29T09:57:23;100887.19;;;33.95;36.12
54948;BME280;41113;41.882;12.530;2022-07-29T10:00:07;100886.00;;;34.07;37.15
54948;BME280;41113;41.882;12.530;2022-07-29T10:02:35;100886.50;;;34.19;36.25
54948;BME280;41113;41.882;12.530;2022-07-29T10:05:01;100881.97;;;33.84;36.08
54948;BME280;41113;41.882;12.530;2022-07-29T10:07:29;100882.97;;;33.13;37.10
54948;BME280;41113;41.882;12.530;2022-07-29T10:10:07;100885.50;;;33.09;37.18
54948;BME280;41113;41.882;12.530;2022-07-29T10:12:32;100880.97;;;33.44;37.07
54948;BME280;41113;41.882;12.530;2022-07-29T10:14:57;100884.56;;;33.60;36.60
54948;BME280;41113;41.882;12.530;2022-07-29T10:17:23;100880.03;;;33.74;36.85
54948;BME280;41113;41.882;12.530;2022-07-29T10:19:48;100873.63;;;33.84;36.87
54948;BME280;41113;41.882;12.530;2022-07-29T10:22:14;100868.31;;;33.87;36.61
54948;BME280;41113;41.882;12.530;2022-07-29T10:24:39;100869.31;;;34.01;36.37
54948;BME280;41113;41.882;12.530;2022-07-29T10:27:06;100866.59;;;33.91;35.56
54948;BME280;41113;41.882;12.530;2022-07-29T10:29:32;100866.13;;;33.69;35.70
54948;BME280;41113;41.882;12.530;2022-07-29T10:42:19;100853.75;;;33.16;36.86
54948;BME280;41113;41.882;12.530;2022-07-29T10:44:49;100847.00;;;33.42;36.79
54948;BME280;41113;41.882;12.530;2022-07-29T10:47:25;100854.72;;;33.65;36.55
54948;BME280;41113;41.882;12.530;2022-07-29T10:50:00;100852.66;;;33.91;36.44
54948;BME280;41113;41.882;12.530;2022-07-29T10:55:30;100848.41;;;34.04;35.72
54948;BME280;41113;41.882;12.530;2022-07-29T10:58:11;100848.34;;;34.09;35.63
54948;BME280;41113;41.882;12.530;2022-07-29T11:00:37;100848.88;;;34.16;35.43
54948;BME280;41113;41.882;12.530;2022-07-29T11:03:02;100855.00;;;34.18;35.15
54948;BME280;41113;41.882;12.530;2022-07-29T11:05:27;100853.13;;;34.03;35.35
54948;BME280;41113;41.882;12.530;2022-07-29T11:10:44;100845.38;;;33.36;35.18
54948;BME280;41113;41.882;12.530;2022-07-29T11:13:09;100842.00;;;33.44;35.53
54948;BME280;41113;41.882;12.530;2022-07-29T11:15:55;100835.75;;;33.67;35.43
54948;BME280;41113;41.882;12.530;2022-07-29T11:18:21;100837.41;;;33.84;34.90
54948;BME280;41113;41.882;12.530;2022-07-29T11:20:47;100842.78;;;34.09;35.17
54948;BME280;41113;41.882;12.530;2022-07-29T11:23:32;100844.09;;;33.83;35.06
54948;BME280;41113;41.882;12.530;2022-07-29T11:26:13;100831.41;;;33.51;35.13
54948;BME280;41113;41.882;12.530;2022-07-29T11:39:25;100813.53;;;34.07;40.70
54948;BME280;41113;41.882;12.530;2022-07-29T11:41:51;100811.00;;;34.10;40.67
54948;BME280;41113;41.882;12.530;2022-07-29T11:44:16;100816.56;;;34.10;40.85
54948;BME280;41113;41.882;12.530;2022-07-29T11:46:48;100815.44;;;34.16;40.59
54948;BME280;41113;41.882;12.530;2022-07-29T11:49:23;100811.81;;;34.16;40.34
54948;BME280;41113;41.882;12.530;2022-07-29T11:51:52;100824.34;;;34.18;40.69
54948;BME280;41113;41.882;12.530;2022-07-29T11:54:21;100820.44;;;34.19;40.55
54948;BME280;41113;41.882;12.530;2022-07-29T11:56:48;100819.84;;;34.22;41.03
54948;BME280;41113;41.882;12.530;2022-07-29T11:59:14;100820.13;;;34.21;41.11
54948;BME280;41113;41.882;12.530;2022-07-29T12:01:51;100816.88;;;34.09;41.99
54948;BME280;41113;41.882;12.530;2022-07-29T12:04:16;100822.97;;;34.11;42.74
54948;BME280;41113;41.882;12.530;2022-07-29T12:06:41;100823.22;;;34.14;42.23
54948;BME280;41113;41.882;12.530;2022-07-29T12:09:07;100827.13;;;34.18;42.12
54948;BME280;41113;41.882;12.530;2022-07-29T12:11:33;100824.63;;;34.17;42.20
54948;BME280;41113;41.882;12.530;2022-07-29T12:13:58;100822.69;;;34.17;42.05
54948;BME280;41113;41.882;12.530;2022-07-29T12:16:33;100829.09;;;34.18;42.24
54948;BME280;41113;41.882;12.530;2022-07-29T12:18:59;100831.34;;;34.16;42.25
54948;BME280;41113;41.882;12.530;2022-07-29T12:21:25;100828.81;;;34.14;41.98
54948;BME280;41113;41.882;12.530;2022-07-29T12:23:54;100831.63;;;34.09;42.11
54948;BME280;41113;41.882;12.530;2022-07-29T12:26:20;100836.13;;;34.05;42.22
54948;BME280;41113;41.882;12.530;2022-07-29T12:28:45;100832.78;;;34.03;42.58
54948;BME280;41113;41.882;12.530;2022-07-29T12:31:14;100838.38;;;34.03;42.08
54948;BME280;41113;41.882;12.530;2022-07-29T12:33:40;100838.94;;;34.00;42.78
54948;BME280;41113;41.882;12.530;2022-07-29T12:36:05;100835.59;;;34.03;42.76
54948;BME280;41113;41.882;12.530;2022-07-29T12:38:30;100837.28;;;33.99;42.62
54948;BME280;41113;41.882;12.530;2022-07-29T12:40:56;100836.75;;;33.97;42.62
54948;BME280;41113;41.882;12.530;2022-07-29T12:43:22;100838.47;;;33.88;42.46
54948;BME280;41113;41.882;12.530;2022-07-29T12:45:49;100840.06;;;33.99;42.63
54948;BME280;41113;41.882;12.530;2022-07-29T12:48:15;100834.81;;;33.92;42.42
54948;BME280;41113;41.882;12.530;2022-07-29T12:50:56;100835.13;;;33.91;42.39
54948;BME280;41113;41.882;12.530;2022-07-29T12:53:22;100840.41;;;33.92;42.42
54948;BME280;41113;41.882;12.530;2022-07-29T12:55:49;100841.81;;;33.90;42.30
54948;BME280;41113;41.882;12.530;2022-07-29T12:58:33;100830.13;;;33.88;42.37
54948;BME280;41113;41.882;12.530;2022-07-29T13:01:06;100830.13;;;33.88;42.51
54948;BME280;41113;41.882;12.530;2022-07-29T13:03:48;100825.63;;;33.92;42.46
54948;BME280;41113;41.882;12.530;2022-07-29T13:06:30;100829.78;;;33.94;42.77
54948;BME280;41113;41.882;12.530;2022-07-29T13:09:15;100834.00;;;33.92;42.62
54948;BME280;41113;41.882;12.530;2022-07-29T13:11:44;100831.78;;;33.89;42.57
54948;BME280;41113;41.882;12.530;2022-07-29T13:14:11;100825.13;;;33.85;42.77
54948;BME280;41113;41.882;12.530;2022-07-29T13:16:40;100829.28;;;33.77;42.88
54948;BME280;41113;41.882;12.530;2022-07-29T13:19:31;100825.66;;;33.82;42.55
54948;BME280;41113;41.882;12.530;2022-07-29T13:21:57;100829.03;;;33.84;42.33
54948;BME280;41113;41.882;12.530;2022-07-29T13:24:22;100831.22;;;33.82;42.63
54948;BME280;41113;41.882;12.530;2022-07-29T13:26:47;100829.56;;;33.81;42.37
54948;BME280;41113;41.882;12.530;2022-07-29T13:29:12;100818.41;;;33.81;42.36
54948;BME280;41113;41.882;12.530;2022-07-29T13:31:38;100825.66;;;33.82;42.27